createdAt,value
2023-04-07T00:01:40.003Z,30.30
2023-04-07T00:04:06.929Z,29.50
2023-04-07T00:06:33.823Z,29.10
2023-04-07T00:09:00.997Z,28.90
2023-04-07T00:11:27.978Z,28.90
2023-04-07T00:13:55.160Z,28.50
2023-04-07T00:16:22.209Z,28.10
2023-04-07T00:18:49.025Z,28.10
2023-04-07T00:21:15.836Z,27.70
2023-04-07T00:23:42.935Z,27.60
2023-04-07T00:26:09.770Z,26.70
2023-04-07T00:28:36.611Z,26.40
2023-04-07T00:31:03.561Z,26.20
2023-04-07T00:33:30.746Z,26.10
2023-04-07T00:35:58.769Z,25.90
2023-04-07T00:38:25.708Z,25.60
2023-04-07T00:41:00.922Z,25.60
2023-04-07T00:43:27.927Z,25.70
2023-04-07T00:45:54.932Z,25.60
2023-04-07T00:48:22.148Z,25.70
2023-04-07T00:50:49.086Z,26.00
2023-04-07T00:53:16.360Z,26.70
2023-04-07T00:55:43.421Z,27.50
2023-04-07T00:58:10.387Z,27.80
2023-04-07T01:00:44.382Z,28.20
2023-04-07T01:03:32.227Z,28.50
2023-04-07T01:06:02.294Z,29.10
2023-04-07T01:08:47.148Z,30.00
2023-04-07T01:11:21.283Z,30.70
2023-04-07T01:13:52.393Z,31.90
2023-04-07T01:16:29.691Z,32.20
2023-04-07T01:19:05.013Z,33.10
2023-04-07T01:21:35.178Z,33.50
2023-04-07T01:24:13.878Z,34.20
2023-04-07T01:26:42.378Z,34.50
2023-04-07T01:29:41.559Z,35.10
2023-04-07T01:32:11.929Z,35.70
2023-04-07T01:34:41.070Z,36.20
2023-04-07T01:37:08.670Z,36.70
2023-04-07T01:39:37.483Z,37.50
2023-04-07T01:42:06.921Z,37.80
2023-04-07T01:44:34.596Z,38.20
2023-04-07T01:47:02.085Z,39.00
2023-04-07T01:49:30.982Z,39.70
2023-04-07T01:51:58.181Z,40.60
2023-04-07T01:54:26.104Z,41.50
2023-04-07T01:56:52.872Z,42.20
2023-04-07T01:59:19.788Z,43.10
2023-04-07T02:01:46.697Z,43.60
2023-04-07T02:04:28.432Z,44.70
2023-04-07T02:07:00.933Z,44.90
2023-04-07T02:09:31.704Z,45.60
2023-04-07T02:12:01.190Z,46.50
2023-04-07T02:14:28.797Z,47.50
2023-04-07T02:16:57.202Z,49.10
2023-04-07T02:19:24.944Z,50.40
2023-04-07T02:21:52.681Z,52.20
2023-04-07T02:24:22.462Z,53.60
2023-04-07T02:26:50.588Z,55.20
2023-04-07T02:29:17.470Z,56.80
2023-04-07T02:31:44.319Z,59.20
2023-04-07T02:34:11.152Z,59.60
2023-04-07T02:36:37.979Z,60.40
2023-04-07T02:39:04.945Z,61.20
2023-04-07T02:41:31.721Z,62.30
2023-04-07T02:43:58.618Z,63.00
2023-04-07T02:46:25.474Z,63.80
2023-04-07T02:48:52.363Z,64.20
2023-04-07T02:51:19.122Z,64.20
2023-04-07T02:53:45.868Z,65.30
2023-04-07T02:56:12.604Z,66.10
2023-04-07T02:58:39.414Z,64.90
2023-04-07T03:01:06.224Z,64.80
2023-04-07T03:03:33.123Z,64.20
2023-04-07T03:05:59.968Z,64.20
2023-04-07T03:08:27.484Z,64.10
2023-04-07T03:10:54.270Z,64.30
2023-04-07T03:13:21.409Z,64.80
2023-04-07T03:15:48.191Z,65.60
2023-04-07T03:18:14.970Z,65.80
2023-04-07T03:20:42.405Z,64.50
2023-04-07T03:23:09.245Z,63.50
2023-04-07T03:25:36.537Z,62.70
2023-04-07T03:28:03.435Z,62.60
2023-04-07T03:30:30.446Z,62.90
2023-04-07T03:32:57.275Z,63.90
2023-04-07T03:35:24.129Z,64.20
2023-04-07T03:37:50.901Z,64.80
2023-04-07T03:40:17.790Z,64.40
2023-04-07T03:42:46.619Z,64.40
2023-04-07T03:45:13.550Z,64.70
2023-04-07T03:47:40.357Z,64.70
2023-04-07T03:50:07.548Z,64.50
2023-04-07T03:52:34.298Z,65.70
2023-04-07T03:55:01.092Z,68.90
2023-04-07T03:57:28.013Z,69.80
2023-04-07T03:59:56.215Z,71.40
2023-04-07T04:02:23.284Z,73.00
2023-04-07T04:04:50.115Z,73.90
2023-04-07T04:07:16.957Z,76.20
2023-04-07T04:09:43.698Z,76.90
2023-04-07T04:12:10.609Z,76.20
2023-04-07T04:14:37.368Z,76.90
2023-04-07T04:17:05.506Z,77.70
2023-04-07T04:19:32.716Z,78.00
2023-04-07T04:21:59.496Z,78.30
2023-04-07T04:24:26.322Z,79.40
2023-04-07T04:26:53.058Z,78.70
2023-04-07T04:29:19.835Z,78.20
2023-04-07T04:31:46.693Z,77.80
2023-04-07T04:34:13.535Z,78.70
2023-04-07T04:36:41.580Z,79.00
2023-04-07T04:39:08.563Z,78.70
2023-04-07T04:41:35.441Z,79.10
2023-04-07T04:44:02.199Z,79.20
2023-04-07T04:46:28.966Z,79.40
2023-04-07T04:48:56.463Z,78.20
2023-04-07T04:51:23.252Z,77.30
2023-04-07T04:53:50.049Z,77.50
2023-04-07T04:56:17.116Z,78.50
2023-04-07T04:58:46.641Z,78.80
2023-04-07T05:01:14.046Z,80.30
2023-04-07T05:03:41.139Z,81.00
2023-04-07T05:06:08.224Z,81.30
2023-04-07T05:08:35.044Z,81.10
2023-04-07T05:11:01.840Z,81.00
2023-04-07T05:13:31.034Z,82.10
2023-04-07T05:15:57.905Z,83.10
2023-04-07T05:18:24.762Z,82.70
2023-04-07T05:20:51.505Z,83.10
2023-04-07T05:23:18.293Z,82.90
2023-04-07T05:25:45.071Z,81.90
2023-04-07T05:28:11.857Z,81.40
2023-04-07T05:30:38.606Z,80.30
2023-04-07T05:33:05.632Z,80.90
2023-04-07T05:35:32.461Z,81.00
2023-04-07T05:37:59.328Z,80.30
2023-04-07T05:40:26.088Z,79.00
2023-04-07T05:42:52.869Z,77.90
2023-04-07T05:45:19.996Z,78.40
2023-04-07T05:47:50.069Z,79.80
2023-04-07T05:50:17.983Z,80.10
2023-04-07T05:52:44.861Z,81.50
2023-04-07T05:55:11.687Z,82.70
2023-04-07T05:57:38.517Z,83.90
2023-04-07T06:00:05.896Z,84.40
2023-04-07T06:02:32.892Z,83.50
2023-04-07T06:04:59.806Z,81.30
2023-04-07T06:07:26.616Z,80.30
2023-04-07T06:09:54.047Z,79.70
2023-04-07T06:12:21.033Z,78.00
2023-04-07T06:14:54.804Z,75.60
2023-04-07T06:17:21.985Z,75.00
2023-04-07T06:19:48.879Z,73.60
2023-04-07T06:22:15.789Z,73.30
2023-04-07T06:24:42.602Z,73.90
2023-04-07T06:27:09.455Z,74.00
2023-04-07T06:29:36.672Z,72.70
2023-04-07T06:32:03.484Z,71.50
2023-04-07T06:34:30.469Z,71.60
2023-04-07T06:36:58.339Z,71.70
2023-04-07T06:39:27.566Z,72.80
2023-04-07T06:41:54.372Z,73.10
2023-04-07T06:44:21.150Z,73.30
2023-04-07T06:46:50.422Z,72.90
2023-04-07T06:49:17.407Z,72.30
2023-04-07T06:51:44.205Z,72.70
2023-04-07T06:54:14.877Z,73.00
2023-04-07T06:56:42.997Z,72.20
2023-04-07T06:59:10.287Z,71.00
2023-04-07T07:01:37.932Z,71.50
2023-04-07T07:04:06.689Z,73.90
2023-04-07T07:06:33.838Z,74.50
2023-04-07T07:09:02.746Z,75.30
2023-04-07T07:11:29.513Z,76.10
2023-04-07T07:13:56.312Z,76.90
2023-04-07T07:16:26.076Z,77.10
2023-04-07T07:18:52.875Z,75.60
2023-04-07T07:21:19.711Z,74.50
2023-04-07T07:23:46.833Z,72.10
2023-04-07T07:26:13.846Z,72.60
2023-04-07T07:28:40.740Z,72.20
2023-04-07T07:31:13.044Z,70.60
2023-04-07T07:33:41.544Z,70.00
2023-04-07T07:36:08.579Z,70.20
2023-04-07T07:38:37.443Z,69.80
2023-04-07T07:41:04.720Z,70.50
2023-04-07T07:43:31.482Z,69.80
2023-04-07T07:45:58.369Z,68.90
2023-04-07T07:48:25.377Z,68.40
2023-04-07T07:50:52.601Z,65.20
2023-04-07T07:53:19.437Z,63.10
2023-04-07T07:55:47.235Z,64.20
2023-04-07T07:58:14.155Z,63.30
2023-04-07T08:00:41.019Z,60.50
2023-04-07T08:03:08.015Z,58.70
2023-04-07T08:05:34.897Z,56.60
2023-04-07T08:08:01.877Z,56.00
2023-04-07T08:10:28.817Z,55.20
2023-04-07T08:12:55.924Z,52.40
2023-04-07T08:15:22.784Z,53.90
2023-04-07T08:17:49.719Z,51.20
2023-04-07T08:20:16.686Z,51.80
2023-04-07T08:22:43.466Z,49.70
2023-04-07T08:25:11.117Z,47.70
2023-04-07T08:27:37.934Z,47.30
2023-04-07T08:30:08.773Z,47.20
2023-04-07T08:32:40.707Z,45.00
2023-04-07T08:35:08.006Z,45.90
2023-04-07T08:37:36.101Z,43.60
2023-04-07T08:40:04.016Z,43.10
2023-04-07T08:42:32.790Z,39.40
2023-04-07T08:45:05.004Z,40.00
2023-04-07T08:47:33.965Z,39.00
2023-04-07T08:50:03.905Z,37.30
2023-04-07T08:52:55.145Z,36.30
2023-04-07T08:55:22.296Z,35.80
2023-04-07T08:57:49.492Z,34.30
2023-04-07T09:00:16.528Z,34.70
2023-04-07T09:02:48.988Z,34.00
2023-04-07T09:05:16.402Z,32.00
2023-04-07T09:07:43.433Z,32.30
2023-04-07T09:10:10.402Z,34.70
2023-04-07T09:12:37.931Z,35.40
2023-04-07T09:15:07.880Z,33.30
2023-04-07T09:17:34.931Z,32.70
2023-04-07T09:20:02.263Z,31.80
2023-04-07T09:22:37.417Z,31.40
2023-04-07T09:25:30.534Z,30.70
2023-04-07T09:28:02.547Z,29.80
2023-04-07T09:30:31.096Z,31.10
2023-04-07T09:32:59.194Z,31.20
2023-04-07T09:35:28.410Z,29.90
2023-04-07T09:38:07.197Z,28.80
2023-04-07T09:40:35.255Z,28.70
2023-04-07T09:43:04.122Z,26.50
2023-04-07T09:45:39.288Z,26.80
2023-04-07T09:48:07.922Z,26.70
2023-04-07T09:50:41.224Z,26.90
2023-04-07T09:53:08.638Z,27.20
2023-04-07T09:55:36.518Z,26.10
2023-04-07T09:58:04.841Z,27.50
2023-04-07T10:00:32.099Z,28.20
2023-04-07T10:02:59.485Z,27.80
2023-04-07T10:05:27.744Z,28.60
2023-04-07T10:07:55.074Z,28.50
2023-04-07T10:10:21.889Z,27.40
2023-04-07T10:12:50.152Z,27.80
2023-04-07T10:15:17.438Z,27.90
2023-04-07T10:17:49.672Z,27.50
2023-04-07T10:20:23.061Z,27.50
2023-04-07T10:22:51.677Z,28.00
2023-04-07T10:25:21.262Z,28.70
2023-04-07T10:27:53.405Z,29.30
2023-04-07T10:30:31.283Z,29.00
2023-04-07T10:32:59.057Z,30.30
2023-04-07T10:35:26.785Z,29.50
2023-04-07T10:38:08.740Z,28.40
2023-04-07T10:40:36.782Z,27.60
2023-04-07T10:43:05.137Z,28.40
2023-04-07T10:45:51.961Z,28.20
2023-04-07T10:48:20.314Z,28.10
2023-04-07T10:51:08.451Z,27.30
2023-04-07T10:53:35.415Z,27.50
2023-04-07T10:56:02.819Z,27.60
2023-04-07T10:58:30.864Z,27.10
2023-04-07T11:01:03.939Z,27.60
2023-04-07T11:03:34.085Z,27.60
2023-04-07T11:06:09.102Z,28.00
2023-04-07T11:08:36.921Z,28.70
2023-04-07T11:11:11.380Z,29.10
2023-04-07T11:13:41.935Z,28.90
2023-04-07T11:16:09.537Z,28.50
2023-04-07T11:18:37.654Z,28.50
2023-04-07T11:21:08.318Z,29.30
2023-04-07T11:23:43.131Z,29.10
2023-04-07T11:26:12.772Z,29.40
2023-04-07T11:28:52.489Z,29.50
2023-04-07T11:31:24.664Z,28.90
2023-04-07T11:33:59.495Z,29.30
2023-04-07T11:36:34.063Z,29.10
2023-04-07T11:39:02.497Z,29.10
2023-04-07T11:41:32.952Z,28.80
2023-04-07T11:44:14.522Z,28.90
2023-04-07T11:46:58.747Z,28.30
2023-04-07T11:49:31.900Z,28.70
2023-04-07T11:52:04.060Z,28.70
2023-04-07T11:54:42.465Z,28.70
2023-04-07T11:57:12.510Z,28.70
2023-04-07T11:59:40.931Z,28.60
2023-04-07T12:02:08.425Z,28.70
2023-04-07T12:04:37.866Z,29.00
2023-04-07T12:07:09.336Z,29.00
2023-04-07T12:09:37.527Z,28.60
2023-04-07T12:12:06.486Z,28.60
2023-04-07T12:14:33.756Z,28.20
2023-04-07T12:17:03.280Z,28.10
2023-04-07T12:19:34.889Z,27.80
2023-04-07T12:22:01.767Z,27.60
2023-04-07T12:24:28.685Z,27.30
2023-04-07T12:26:56.268Z,27.30
2023-04-07T12:29:23.215Z,27.70
2023-04-07T12:31:51.298Z,27.40
2023-04-07T12:34:18.831Z,27.60
2023-04-07T12:36:45.673Z,27.30
2023-04-07T12:39:12.679Z,27.40
2023-04-07T12:41:39.833Z,27.40
2023-04-07T12:44:06.699Z,27.50
2023-04-07T12:46:33.673Z,27.40
2023-04-07T12:49:01.229Z,27.40
2023-04-07T12:51:28.625Z,27.40
2023-04-07T12:53:55.409Z,28.00
2023-04-07T12:56:22.520Z,28.10
2023-04-07T12:58:49.372Z,28.30
2023-04-07T13:01:16.829Z,28.60
2023-04-07T13:03:44.259Z,28.90
2023-04-07T13:06:11.850Z,28.70
2023-04-07T13:08:41.725Z,28.60
2023-04-07T13:11:08.491Z,28.60
2023-04-07T13:13:35.496Z,28.60
2023-04-07T13:16:02.721Z,28.60
2023-04-07T13:18:29.533Z,28.70
2023-04-07T13:21:26.448Z,28.70
2023-04-07T13:23:44.077Z,28.50
2023-04-07T13:26:29.977Z,28.90
2023-04-07T13:28:56.839Z,28.80
2023-04-07T13:31:23.800Z,28.80
2023-04-07T13:33:51.288Z,28.70
2023-04-07T13:36:18.641Z,28.50
2023-04-07T13:38:46.318Z,28.70
2023-04-07T13:41:13.052Z,28.50
2023-04-07T13:43:39.865Z,28.60
2023-04-07T13:46:17.226Z,28.90
2023-04-07T13:48:51.886Z,29.10
2023-04-07T13:51:19.248Z,29.60
2023-04-07T13:53:46.911Z,30.00
2023-04-07T13:56:13.852Z,30.50
2023-04-07T13:58:40.594Z,30.70
2023-04-07T14:01:07.433Z,30.80
2023-04-07T14:03:35.393Z,30.70
2023-04-07T14:06:02.953Z,31.50
2023-04-07T14:08:29.839Z,31.50
2023-04-07T14:10:56.584Z,32.20
2023-04-07T14:13:23.794Z,33.10
2023-04-07T14:15:50.655Z,33.30
2023-04-07T14:18:17.720Z,33.80
2023-04-07T14:20:44.588Z,34.10
2023-04-07T14:23:11.759Z,34.30
2023-04-07T14:25:38.727Z,34.60
2023-04-07T14:28:05.507Z,34.50
2023-04-07T14:30:36.245Z,33.90
2023-04-07T14:33:05.012Z,33.80
2023-04-07T14:35:32.205Z,33.30
2023-04-07T14:37:59.140Z,33.50
2023-04-07T14:40:25.968Z,33.80
2023-04-07T14:45:21.440Z,33.10
2023-04-07T14:47:48.291Z,33.30
2023-04-07T14:50:15.116Z,33.40
2023-04-07T14:52:42.017Z,34.40
2023-04-07T14:55:08.920Z,33.10
2023-04-07T14:57:35.726Z,32.90
2023-04-07T15:00:04.572Z,32.80
2023-04-07T15:02:32.689Z,32.60
2023-04-07T15:04:59.966Z,32.80
2023-04-07T15:07:26.788Z,33.40
2023-04-07T15:09:53.995Z,34.40
2023-04-07T15:12:20.857Z,34.20
2023-04-07T15:14:51.348Z,34.80
2023-04-07T15:17:18.178Z,34.30
2023-04-07T15:19:44.983Z,34.10
2023-04-07T15:22:11.725Z,34.30
2023-04-07T15:24:38.461Z,34.50
2023-04-07T15:27:06.074Z,34.50
2023-04-07T15:29:32.896Z,34.60
2023-04-07T15:31:59.683Z,34.60
2023-04-07T15:34:26.480Z,35.50
2023-04-07T15:36:53.301Z,35.60
2023-04-07T15:39:20.061Z,35.90
2023-04-07T15:41:46.850Z,36.70
2023-04-07T15:44:18.749Z,36.70
2023-04-07T15:46:46.058Z,36.70
2023-04-07T15:49:12.884Z,35.90
2023-04-07T15:51:39.924Z,35.70
2023-04-07T15:54:06.674Z,35.40
2023-04-07T15:56:33.867Z,35.40
2023-04-07T15:59:00.717Z,35.90
2023-04-07T16:01:28.405Z,35.40
2023-04-07T16:03:55.452Z,35.40
2023-04-07T16:06:22.908Z,35.70
2023-04-07T16:08:49.668Z,35.60
2023-04-07T16:11:16.571Z,35.60
2023-04-07T16:13:43.357Z,35.30
2023-04-07T16:16:10.515Z,34.70
2023-04-07T16:18:37.353Z,34.70
2023-04-07T16:21:07.954Z,34.70
2023-04-07T16:23:34.734Z,34.40
2023-04-07T16:26:01.530Z,34.40
2023-04-07T16:28:28.306Z,34.20
2023-04-07T16:30:55.073Z,34.40
2023-04-07T16:33:23.760Z,34.40
2023-04-07T16:35:52.209Z,34.40
2023-04-07T16:38:19.039Z,34.70
2023-04-07T16:41:02.868Z,34.80
2023-04-07T16:43:30.539Z,34.80
2023-04-07T16:46:00.051Z,34.90
2023-04-07T16:48:27.293Z,35.60
2023-04-07T16:50:54.073Z,35.60
2023-04-07T16:53:21.555Z,35.60
2023-04-07T16:55:48.642Z,35.60
2023-04-07T16:58:19.104Z,35.40
2023-04-07T17:00:46.436Z,35.40
2023-04-07T17:03:15.417Z,35.40
2023-04-07T17:05:44.628Z,35.90
2023-04-07T17:08:11.738Z,36.70
2023-04-07T17:10:38.517Z,37.00
2023-04-07T17:13:05.525Z,36.10
2023-04-07T17:15:37.080Z,36.10
2023-04-07T17:18:04.211Z,36.00
2023-04-07T17:20:31.051Z,36.30
2023-04-07T17:22:57.832Z,36.70
2023-04-07T17:25:24.936Z,36.70
2023-04-07T17:27:54.950Z,36.60
2023-04-07T17:30:22.053Z,36.60
2023-04-07T17:32:53.677Z,36.90
2023-04-07T17:35:21.497Z,37.10
2023-04-07T17:37:48.636Z,37.10
2023-04-07T17:40:15.470Z,36.70
2023-04-07T17:42:42.917Z,36.40
2023-04-07T17:45:10.777Z,36.90
2023-04-07T17:47:37.760Z,37.40
2023-04-07T17:50:04.986Z,37.80
2023-04-07T17:52:31.782Z,37.60
2023-04-07T17:54:59.317Z,37.60
2023-04-07T17:57:26.193Z,37.90
2023-04-07T17:59:52.961Z,38.40
2023-04-07T18:02:19.922Z,38.50
2023-04-07T18:04:46.910Z,38.90
2023-04-07T18:07:13.988Z,38.60
2023-04-07T18:09:41.750Z,38.30
2023-04-07T18:12:09.009Z,38.30
2023-04-07T18:14:35.828Z,38.20
2023-04-07T18:17:02.569Z,38.00
2023-04-07T18:19:30.205Z,38.20
2023-04-07T18:21:57.036Z,38.10
2023-04-07T18:24:23.855Z,38.10
2023-04-07T18:26:56.951Z,38.30
2023-04-07T18:29:23.800Z,38.50
2023-04-07T18:31:50.843Z,38.50
2023-04-07T18:34:17.678Z,38.70
2023-04-07T18:36:44.529Z,38.80
2023-04-07T18:39:11.462Z,38.70
2023-04-07T18:41:41.897Z,38.60
2023-04-07T18:44:08.633Z,38.90
2023-04-07T18:46:35.476Z,39.20
2023-04-07T18:49:02.709Z,39.20
2023-04-07T18:51:29.653Z,39.10
2023-04-07T18:53:56.544Z,38.90
2023-04-07T18:56:25.303Z,38.60
2023-04-07T18:58:52.110Z,38.60
2023-04-07T19:01:19.036Z,38.50
2023-04-07T19:03:46.131Z,38.50
2023-04-07T19:06:16.816Z,38.30
2023-04-07T19:08:43.688Z,38.60
2023-04-07T19:11:10.604Z,38.70
2023-04-07T19:13:37.400Z,38.50
2023-04-07T19:16:04.314Z,38.90
2023-04-07T19:18:31.922Z,38.90
2023-04-07T19:20:58.752Z,38.80
2023-04-07T19:23:25.711Z,39.10
2023-04-07T19:25:52.530Z,39.10
2023-04-07T19:28:19.338Z,39.30
2023-04-07T19:30:46.105Z,39.40
2023-04-07T19:33:12.910Z,39.40
2023-04-07T19:35:39.785Z,39.50
2023-04-07T19:38:07.235Z,39.90
2023-04-07T19:40:33.971Z,40.00
2023-04-07T19:43:00.889Z,40.20
2023-04-07T19:45:27.844Z,40.20
2023-04-07T19:47:54.921Z,40.10
2023-04-07T19:50:21.790Z,40.40
2023-04-07T19:52:50.492Z,40.40
2023-04-07T19:55:17.405Z,40.20
2023-04-07T19:57:44.216Z,40.30
2023-04-07T20:00:11.698Z,40.20
2023-04-07T20:02:38.786Z,40.10
2023-04-07T20:05:06.044Z,40.10
2023-04-07T20:07:33.807Z,40.00
2023-04-07T20:10:01.111Z,39.90
2023-04-07T20:12:28.011Z,39.90
2023-04-07T20:14:54.841Z,40.00
2023-04-07T20:17:21.666Z,39.90
2023-04-07T20:19:48.525Z,40.00
2023-04-07T20:22:15.707Z,40.00
2023-04-07T20:24:42.602Z,40.30
2023-04-07T20:27:09.434Z,40.20
2023-04-07T20:29:36.712Z,40.70
2023-04-07T20:32:03.624Z,40.90
2023-04-07T20:34:30.514Z,41.10
2023-04-07T20:36:58.103Z,41.20
2023-04-07T20:39:24.924Z,41.50
2023-04-07T20:41:51.706Z,41.50
2023-04-07T20:44:18.520Z,41.30
2023-04-07T20:46:46.895Z,41.50
2023-04-07T20:49:13.751Z,41.80
2023-04-07T20:51:40.977Z,42.10
2023-04-07T20:54:07.919Z,42.30
2023-04-07T20:56:34.880Z,42.60
2023-04-07T20:59:01.816Z,42.70
2023-04-07T21:01:28.722Z,42.70
2023-04-07T21:03:55.722Z,42.60
2023-04-07T21:06:22.553Z,43.10
2023-04-07T21:08:49.608Z,42.80
2023-04-07T21:11:16.575Z,43.10
2023-04-07T21:13:43.413Z,43.30
2023-04-07T21:16:10.796Z,43.30
2023-04-07T21:18:37.634Z,43.60
2023-04-07T21:21:04.598Z,43.80
2023-04-07T21:23:31.983Z,43.90
2023-04-07T21:26:03.249Z,44.50
2023-04-07T21:28:30.307Z,44.90
2023-04-07T21:30:57.305Z,45.60
2023-04-07T21:33:24.477Z,47.10
2023-04-07T21:35:52.060Z,47.70
2023-04-07T21:38:19.187Z,48.60
2023-04-07T21:40:46.027Z,48.80
2023-04-07T21:43:13.212Z,49.60
2023-04-07T21:45:40.035Z,50.10
2023-04-07T21:48:07.076Z,50.70
2023-04-07T21:50:34.631Z,51.00
2023-04-07T21:53:01.605Z,51.40
2023-04-07T21:55:28.511Z,51.80
2023-04-07T21:57:55.383Z,52.00
2023-04-07T22:00:22.621Z,52.40
2023-04-07T22:02:49.919Z,53.10
2023-04-07T22:05:17.490Z,53.70
2023-04-07T22:07:45.755Z,53.90
2023-04-07T22:10:13.055Z,54.00
2023-04-07T22:12:40.102Z,54.10
2023-04-07T22:15:08.700Z,53.90
2023-04-07T22:17:35.722Z,54.10
2023-04-07T22:20:02.742Z,54.70
2023-04-07T22:22:29.529Z,55.20
2023-04-07T22:24:56.469Z,55.30
2023-04-07T22:27:23.376Z,55.60
2023-04-07T22:29:50.515Z,56.00
2023-04-07T22:32:17.297Z,56.40
2023-04-07T22:34:44.613Z,56.40
2023-04-07T22:37:11.477Z,56.70
2023-04-07T22:39:38.549Z,56.90
2023-04-07T22:42:05.838Z,57.40
2023-04-07T22:44:32.645Z,57.10
2023-04-07T22:46:59.568Z,57.60
2023-04-07T22:49:26.483Z,57.90
2023-04-07T22:51:55.236Z,57.90
2023-04-07T22:54:22.141Z,58.50
2023-04-07T22:56:49.087Z,58.60
2023-04-07T22:59:15.928Z,58.60
2023-04-07T23:01:42.873Z,58.80
2023-04-07T23:04:09.740Z,59.50
2023-04-07T23:06:36.579Z,59.70
2023-04-07T23:09:03.402Z,59.60
2023-04-07T23:11:30.256Z,60.00
2023-04-07T23:13:57.142Z,60.30
2023-04-07T23:16:23.961Z,60.70
2023-04-07T23:18:51.005Z,61.20
2023-04-07T23:21:17.953Z,61.70
2023-04-07T23:23:44.793Z,62.10
2023-04-07T23:26:11.523Z,62.00
2023-04-07T23:28:38.319Z,62.80
2023-04-07T23:31:06.727Z,63.20
2023-04-07T23:33:33.697Z,63.70
2023-04-07T23:36:00.642Z,64.50
2023-04-07T23:38:27.594Z,65.00
2023-04-07T23:40:54.444Z,65.00
2023-04-07T23:43:21.211Z,65.30
2023-04-07T23:45:48.177Z,65.40
2023-04-07T23:48:15.589Z,65.50
2023-04-07T23:50:42.444Z,65.50
2023-04-07T23:53:09.269Z,66.00
2023-04-07T23:55:37.223Z,66.00
2023-04-07T23:58:04.068Z,65.80
